createdAt,value
2019-04-16T00:00:43.774Z,9.95
2019-04-16T00:02:06.201Z,10.58
2019-04-16T00:03:11.517Z,10.25
2019-04-16T00:04:44.891Z,11.12
2019-04-16T00:05:59.745Z,10.58
2019-04-16T00:07:22.969Z,10.55
2019-04-16T00:08:35.216Z,11.68
2019-04-16T00:09:55.631Z,9.75
2019-04-16T00:11:13.095Z,11.38
2019-04-16T00:12:27.544Z,10.58
2019-04-16T00:13:40.010Z,10.48
2019-04-16T00:14:46.394Z,10.08
2019-04-16T00:15:51.828Z,10.72
2019-04-16T00:16:56.929Z,10.68
2019-04-16T00:18:02.323Z,10.05
2019-04-16T00:19:07.513Z,10.18
2019-04-16T00:20:18.225Z,10.58
2019-04-16T00:21:31.508Z,10.45
2019-04-16T00:22:42.279Z,10.05
2019-04-16T00:24:05.337Z,10.40
2019-04-16T00:25:10.477Z,9.85
2019-04-16T00:26:15.890Z,10.38
2019-04-16T00:27:20.866Z,10.18
2019-04-16T00:28:30.492Z,10.30
2019-04-16T00:29:33.689Z,10.18
2019-04-16T00:30:38.972Z,11.43
2019-04-16T00:31:46.820Z,10.75
2019-04-16T00:32:51.957Z,11.18
2019-04-16T00:33:56.893Z,10.05
2019-04-16T00:35:02.257Z,11.08
2019-04-16T00:36:07.593Z,11.10
2019-04-16T00:37:12.565Z,10.25
2019-04-16T00:38:17.514Z,10.65
2019-04-16T00:39:24.827Z,9.90
2019-04-16T00:40:29.507Z,10.95
2019-04-16T00:41:34.579Z,10.28
2019-04-16T00:42:39.738Z,11.63
2019-04-16T00:43:46.374Z,11.18
2019-04-16T00:44:51.405Z,9.93
2019-04-16T00:45:56.452Z,10.65
2019-04-16T00:47:01.621Z,11.00
2019-04-16T00:48:06.641Z,10.30
2019-04-16T00:49:11.966Z,10.68
2019-04-16T00:50:17.151Z,11.78
2019-04-16T00:51:22.208Z,10.32
2019-04-16T00:52:27.413Z,11.33
2019-04-16T00:53:32.535Z,10.45
2019-04-16T00:54:39.302Z,10.13
2019-04-16T00:55:45.825Z,10.40
2019-04-16T00:56:51.086Z,10.50
2019-04-16T00:57:56.145Z,11.25
2019-04-16T00:59:01.155Z,10.40
2019-04-16T01:00:07.379Z,11.53
2019-04-16T01:01:12.767Z,10.65
2019-04-16T01:02:17.758Z,11.08
2019-04-16T01:03:23.187Z,10.13
2019-04-16T01:04:28.577Z,10.75
2019-04-16T01:05:35.270Z,11.48
2019-04-16T01:06:41.451Z,12.03
2019-04-16T01:07:46.431Z,10.75
2019-04-16T01:08:54.962Z,11.25
2019-04-16T01:09:58.621Z,11.97
2019-04-16T01:11:03.793Z,11.10
2019-04-16T01:12:08.748Z,11.00
2019-04-16T01:13:14.266Z,12.80
2019-04-16T01:14:19.223Z,11.12
2019-04-16T01:15:24.379Z,11.70
2019-04-16T01:16:30.283Z,11.25
2019-04-16T01:17:36.744Z,11.33
2019-04-16T01:18:41.884Z,11.65
2019-04-16T01:19:46.963Z,11.10
2019-04-16T01:20:52.085Z,11.38
2019-04-16T01:21:57.126Z,10.65
2019-04-16T01:23:02.120Z,10.72
2019-04-16T01:24:07.371Z,11.00
2019-04-16T01:25:12.976Z,10.70
2019-04-16T01:26:18.343Z,11.18
2019-04-16T01:27:31.670Z,11.63
2019-04-16T01:28:41.802Z,10.68
2019-04-16T01:29:47.169Z,10.75
2019-04-16T01:31:23.396Z,11.30
2019-04-16T01:32:45.146Z,11.00
2019-04-16T01:34:06.414Z,11.73
2019-04-16T01:35:33.355Z,12.20
2019-04-16T01:36:47.645Z,11.03
2019-04-16T01:38:10.491Z,12.75
2019-04-16T01:39:18.331Z,11.38
2019-04-16T01:40:28.228Z,11.73
2019-04-16T01:41:33.221Z,11.88
2019-04-16T01:42:38.456Z,11.70
2019-04-16T01:43:43.481Z,10.43
2019-04-16T01:44:48.667Z,11.63
2019-04-16T01:45:53.740Z,12.63
2019-04-16T01:47:03.342Z,11.45
2019-04-16T01:48:08.045Z,12.43
2019-04-16T01:49:12.526Z,12.98
2019-04-16T01:50:17.523Z,12.05
2019-04-16T01:51:22.644Z,11.60
2019-04-16T01:52:27.638Z,12.45
2019-04-16T01:53:32.716Z,11.28
2019-04-16T01:54:38.028Z,12.15
2019-04-16T01:55:43.204Z,11.93
2019-04-16T01:56:48.374Z,13.40
2019-04-16T01:57:53.381Z,11.63
2019-04-16T01:58:58.664Z,11.08
2019-04-16T02:00:07.810Z,12.35
2019-04-16T02:01:13.288Z,12.33
2019-04-16T02:02:18.379Z,10.93
2019-04-16T02:03:23.409Z,11.80
2019-04-16T02:04:28.470Z,11.65
2019-04-16T02:05:33.610Z,12.10
2019-04-16T02:06:39.039Z,12.78
2019-04-16T02:07:44.140Z,14.83
2019-04-16T02:08:49.312Z,11.85
2019-04-16T02:09:54.434Z,13.18
2019-04-16T02:10:59.626Z,12.50
2019-04-16T02:12:04.859Z,13.25
2019-04-16T02:13:14.572Z,13.18
2019-04-16T02:14:18.418Z,12.88
2019-04-16T02:15:23.477Z,12.45
2019-04-16T02:16:28.596Z,12.05
2019-04-16T02:17:38.359Z,12.10
2019-04-16T02:18:43.404Z,12.18
2019-04-16T02:19:48.442Z,12.03
2019-04-16T02:20:53.576Z,14.47
2019-04-16T02:21:58.545Z,11.85
2019-04-16T02:23:05.162Z,11.93
2019-04-16T02:24:10.307Z,11.73
2019-04-16T02:25:18.981Z,11.63
2019-04-16T02:26:23.582Z,12.30
2019-04-16T02:27:29.199Z,12.37
2019-04-16T02:28:34.465Z,12.58
2019-04-16T02:29:39.444Z,12.05
2019-04-16T02:30:44.527Z,12.15
2019-04-16T02:31:51.605Z,11.55
2019-04-16T02:32:56.396Z,12.20
2019-04-16T02:34:01.468Z,12.43
2019-04-16T02:35:07.069Z,13.35
2019-04-16T02:36:12.122Z,12.03
2019-04-16T02:37:17.231Z,11.08
2019-04-16T02:38:22.351Z,10.90
2019-04-16T02:39:46.985Z,11.97
2019-04-16T02:40:34.634Z,11.05
2019-04-16T02:41:39.872Z,11.78
2019-04-16T02:42:44.898Z,11.05
2019-04-16T02:43:49.985Z,11.97
2019-04-16T02:44:55.024Z,12.55
2019-04-16T02:46:00.037Z,12.20
2019-04-16T02:47:07.619Z,11.35
2019-04-16T02:48:16.724Z,13.40
2019-04-16T02:49:23.117Z,12.65
2019-04-16T02:50:33.511Z,12.05
2019-04-16T02:51:58.502Z,10.93
2019-04-16T02:53:25.838Z,12.90
2019-04-16T02:54:48.224Z,12.45
2019-04-16T02:56:07.517Z,12.55
2019-04-16T02:57:35.786Z,11.05
2019-04-16T02:58:47.189Z,11.60
2019-04-16T02:59:52.565Z,11.25
2019-04-16T03:01:11.339Z,11.30
2019-04-16T03:02:34.464Z,11.85
2019-04-16T03:03:55.742Z,12.20
2019-04-16T03:05:05.610Z,12.07
2019-04-16T03:06:10.681Z,12.47
2019-04-16T03:07:15.801Z,12.60
2019-04-16T03:08:20.911Z,11.95
2019-04-16T03:09:26.252Z,11.45
2019-04-16T03:10:31.326Z,11.97
2019-04-16T03:11:36.500Z,13.22
2019-04-16T03:12:41.628Z,12.20
2019-04-16T03:13:46.831Z,12.05
2019-04-16T03:14:51.992Z,11.90
2019-04-16T03:16:16.423Z,12.25
2019-04-16T03:17:46.538Z,10.78
2019-04-16T03:18:59.055Z,12.15
2019-04-16T03:20:05.550Z,11.68
2019-04-16T03:21:10.586Z,12.13
2019-04-16T03:22:15.675Z,12.25
2019-04-16T03:23:23.818Z,12.63
2019-04-16T03:24:28.988Z,12.43
2019-04-16T03:25:34.122Z,12.13
2019-04-16T03:26:39.623Z,12.13
2019-04-16T03:27:44.587Z,11.65
2019-04-16T03:28:49.656Z,11.95
2019-04-16T03:29:54.829Z,12.28
2019-04-16T03:31:00.052Z,12.80
2019-04-16T03:32:05.264Z,12.37
2019-04-16T03:33:13.928Z,12.33
2019-04-16T03:34:21.449Z,12.88
2019-04-16T03:35:26.586Z,12.28
2019-04-16T03:36:31.195Z,11.53
2019-04-16T03:37:36.187Z,13.00
2019-04-16T03:38:42.138Z,13.80
2019-04-16T03:39:47.382Z,12.43
2019-04-16T03:40:55.895Z,11.95
2019-04-16T03:41:59.540Z,12.50
2019-04-16T03:44:15.827Z,12.40
2019-04-16T03:45:20.818Z,13.08
2019-04-16T03:46:25.844Z,12.47
2019-04-16T03:47:30.925Z,13.00
2019-04-16T03:48:36.237Z,13.60
2019-04-16T03:49:41.244Z,11.97
2019-04-16T03:50:46.275Z,11.20
2019-04-16T03:51:51.365Z,12.90
2019-04-16T03:52:56.751Z,12.43
2019-04-16T03:54:04.788Z,12.70
2019-04-16T03:55:08.645Z,11.63
2019-04-16T03:56:13.977Z,12.60
2019-04-16T03:57:18.965Z,11.57
2019-04-16T03:58:24.001Z,13.95
2019-04-16T03:59:29.069Z,12.05
2019-04-16T04:00:34.384Z,12.60
2019-04-16T04:01:39.471Z,12.23
2019-04-16T04:02:44.592Z,12.88
2019-04-16T04:03:49.764Z,12.37
2019-04-16T04:04:57.613Z,12.78
2019-04-16T04:06:03.577Z,13.32
2019-04-16T04:07:12.078Z,12.37
2019-04-16T04:08:17.752Z,12.75
2019-04-16T04:09:22.973Z,13.80
2019-04-16T04:10:30.782Z,13.13
2019-04-16T04:11:35.381Z,11.70
2019-04-16T04:12:42.617Z,14.33
2019-04-16T04:13:50.038Z,12.85
2019-04-16T04:14:57.284Z,12.43
2019-04-16T04:16:02.482Z,12.88
2019-04-16T04:17:07.529Z,13.10
2019-04-16T04:18:12.932Z,12.95
2019-04-16T04:19:18.620Z,13.48
2019-04-16T04:20:23.590Z,12.30
2019-04-16T04:21:28.674Z,14.50
2019-04-16T04:22:33.738Z,13.30
2019-04-16T04:23:39.016Z,12.80
2019-04-16T04:24:44.345Z,12.55
2019-04-16T04:25:49.363Z,13.35
2019-04-16T04:26:54.363Z,12.80
2019-04-16T04:28:00.010Z,13.38
2019-04-16T04:29:06.345Z,12.88
2019-04-16T04:30:11.976Z,13.88
2019-04-16T04:31:17.426Z,14.00
2019-04-16T04:32:23.012Z,13.32
2019-04-16T04:33:41.961Z,13.48
2019-04-16T04:34:45.514Z,12.25
2019-04-16T04:35:52.240Z,12.58
2019-04-16T04:36:59.869Z,12.90
2019-04-16T04:38:04.953Z,14.30
2019-04-16T04:39:14.689Z,13.70
2019-04-16T04:40:17.667Z,13.25
2019-04-16T04:41:24.160Z,13.15
2019-04-16T04:42:29.274Z,14.13
2019-04-16T04:43:34.359Z,13.45
2019-04-16T04:44:39.626Z,13.03
2019-04-16T04:45:44.660Z,12.03
2019-04-16T04:46:49.690Z,13.93
2019-04-16T04:47:54.718Z,12.88
2019-04-16T04:49:00.261Z,14.23
2019-04-16T04:50:06.178Z,13.65
2019-04-16T04:51:11.227Z,14.20
2019-04-16T04:52:16.409Z,13.30
2019-04-16T04:53:21.819Z,14.53
2019-04-16T04:54:26.873Z,14.60
2019-04-16T04:55:31.846Z,13.53
2019-04-16T04:56:36.872Z,13.65
2019-04-16T04:57:42.154Z,12.30
2019-04-16T04:58:47.680Z,13.60
2019-04-16T04:59:52.854Z,14.18
2019-04-16T05:00:58.844Z,13.55
2019-04-16T05:02:04.040Z,13.35
2019-04-16T05:03:12.444Z,13.05
2019-04-16T05:04:27.058Z,12.53
2019-04-16T05:05:36.412Z,13.05
2019-04-16T05:06:41.890Z,13.60
2019-04-16T05:07:46.843Z,12.80
2019-04-16T05:08:51.893Z,13.18
2019-04-16T05:09:56.983Z,13.68
2019-04-16T05:11:03.034Z,13.70
2019-04-16T05:12:08.723Z,14.25
2019-04-16T05:13:14.090Z,12.93
2019-04-16T05:14:19.125Z,13.22
2019-04-16T05:15:26.484Z,13.65
2019-04-16T05:16:31.531Z,12.95
2019-04-16T05:17:38.570Z,13.85
2019-04-16T05:18:44.306Z,13.28
2019-04-16T05:19:49.484Z,13.38
2019-04-16T05:20:54.836Z,12.93
2019-04-16T05:21:59.775Z,13.30
2019-04-16T05:23:04.895Z,13.40
2019-04-16T05:24:09.862Z,14.13
2019-04-16T05:25:14.951Z,13.75
2019-04-16T05:26:20.282Z,14.13
2019-04-16T05:27:25.384Z,14.05
2019-04-16T05:28:30.339Z,14.73
2019-04-16T05:29:35.377Z,13.78
2019-04-16T05:30:40.421Z,14.70
2019-04-16T05:31:45.739Z,14.75
2019-04-16T05:32:50.843Z,13.83
2019-04-16T05:33:59.475Z,14.00
2019-04-16T05:35:02.680Z,15.28
2019-04-16T05:36:10.564Z,13.78
2019-04-16T05:37:16.431Z,14.50
2019-04-16T05:38:23.561Z,14.23
2019-04-16T05:39:28.687Z,14.00
2019-04-16T05:40:35.196Z,15.05
2019-04-16T05:41:40.216Z,13.60
2019-04-16T05:42:45.349Z,14.70
2019-04-16T05:43:50.362Z,13.83
2019-04-16T05:44:55.383Z,15.58
2019-04-16T05:46:00.530Z,13.48
2019-04-16T05:47:05.618Z,12.45
2019-04-16T05:48:10.660Z,16.02
2019-04-16T05:49:15.709Z,13.98
2019-04-16T05:50:21.146Z,14.90
2019-04-16T05:51:28.498Z,13.65
2019-04-16T05:52:35.694Z,14.90
2019-04-16T05:53:41.372Z,14.83
2019-04-16T05:55:20.835Z,14.83
2019-04-16T05:56:39.565Z,16.67
2019-04-16T05:57:45.700Z,14.63
2019-04-16T05:58:50.846Z,13.45
2019-04-16T05:59:55.889Z,12.35
2019-04-16T06:01:10.408Z,16.07
2019-04-16T06:02:33.923Z,15.00
2019-04-16T06:03:39.200Z,15.53
2019-04-16T06:04:44.240Z,16.23
2019-04-16T06:05:49.586Z,14.75
2019-04-16T06:06:54.656Z,15.88
2019-04-16T06:08:10.243Z,16.82
2019-04-16T06:09:15.363Z,15.88
2019-04-16T06:10:20.906Z,16.15
2019-04-16T06:11:29.442Z,15.10
2019-04-16T06:12:40.208Z,17.15
2019-04-16T06:13:53.747Z,14.95
2019-04-16T06:15:09.280Z,15.85
2019-04-16T06:16:49.285Z,14.98
2019-04-16T06:18:16.115Z,16.60
2019-04-16T06:19:36.319Z,15.72
2019-04-16T06:20:49.442Z,14.90
2019-04-16T06:22:13.748Z,16.32
2019-04-16T06:23:41.313Z,14.50
2019-04-16T06:25:08.319Z,15.53
2019-04-16T06:26:26.048Z,15.75
2019-04-16T06:27:50.001Z,15.05
2019-04-16T06:29:14.338Z,15.72
2019-04-16T06:30:42.739Z,15.85
2019-04-16T06:32:04.799Z,17.87
2019-04-16T06:33:13.074Z,15.30
2019-04-16T06:34:26.191Z,14.98
2019-04-16T06:35:43.457Z,16.15
2019-04-16T06:37:02.812Z,17.32
2019-04-16T06:38:15.429Z,16.67
2019-04-16T06:39:40.320Z,15.78
2019-04-16T06:41:04.224Z,15.38
2019-04-16T06:42:23.247Z,14.60
2019-04-16T06:43:30.627Z,16.10
2019-04-16T06:44:43.790Z,15.60
2019-04-16T06:46:16.932Z,14.95
2019-04-16T06:47:53.084Z,14.18
2019-04-16T06:49:07.319Z,15.13
2019-04-16T06:50:31.250Z,15.32
2019-04-16T06:51:54.623Z,15.65
2019-04-16T06:53:23.546Z,15.90
2019-04-16T06:54:45.338Z,15.28
2019-04-16T06:56:08.819Z,14.83
2019-04-16T06:57:30.527Z,14.98
2019-04-16T06:58:51.271Z,14.53
2019-04-16T07:00:13.698Z,14.45
2019-04-16T07:01:52.708Z,16.37
2019-04-16T07:03:13.052Z,15.50
2019-04-16T07:04:37.015Z,15.55
2019-04-16T07:06:07.203Z,16.15
2019-04-16T07:07:13.182Z,15.15
2019-04-16T07:08:37.571Z,15.28
2019-04-16T07:09:57.089Z,15.68
2019-04-16T07:11:03.668Z,14.70
2019-04-16T07:12:15.338Z,15.78
2019-04-16T07:13:20.543Z,15.38
2019-04-16T07:14:25.883Z,16.05
2019-04-16T07:15:30.883Z,15.38
2019-04-16T07:16:35.866Z,15.38
2019-04-16T07:17:40.853Z,16.12
2019-04-16T07:18:45.849Z,15.45
2019-04-16T07:19:50.843Z,15.88
2019-04-16T07:20:55.798Z,15.60
2019-04-16T07:22:01.234Z,16.23
2019-04-16T07:23:06.642Z,14.53
2019-04-16T07:24:11.663Z,14.98
2019-04-16T07:25:17.230Z,13.65
2019-04-16T07:26:22.604Z,14.83
2019-04-16T07:27:39.276Z,12.58
2019-04-16T07:28:49.965Z,13.45
2019-04-16T07:30:06.745Z,12.75
2019-04-16T07:31:34.321Z,12.80
2019-04-16T07:32:49.759Z,14.10
2019-04-16T07:34:16.920Z,13.58
2019-04-16T07:35:47.485Z,13.95
2019-04-16T07:37:01.843Z,13.05
2019-04-16T07:38:18.060Z,12.73
2019-04-16T07:39:41.207Z,13.35
2019-04-16T07:41:02.979Z,13.10
2019-04-16T07:42:26.406Z,14.47
2019-04-16T07:43:49.936Z,13.40
2019-04-16T07:45:03.953Z,12.15
2019-04-16T07:46:26.528Z,12.35
2019-04-16T07:47:52.398Z,13.32
2019-04-16T07:49:26.510Z,12.43
2019-04-16T07:51:06.676Z,12.95
2019-04-16T07:52:29.539Z,12.18
2019-04-16T07:53:41.439Z,11.12
2019-04-16T07:55:04.792Z,13.45
2019-04-16T07:56:16.720Z,11.08
2019-04-16T07:57:22.064Z,12.85
2019-04-16T07:58:27.091Z,12.28
2019-04-16T07:59:32.981Z,13.13
2019-04-16T08:00:41.299Z,14.05
2019-04-16T08:01:47.828Z,14.20
2019-04-16T08:02:53.680Z,12.58
2019-04-16T08:04:00.905Z,13.15
2019-04-16T08:05:08.662Z,13.20
2019-04-16T08:06:14.399Z,13.45
2019-04-16T08:07:20.557Z,14.83
2019-04-16T08:08:26.605Z,13.85
2019-04-16T08:09:33.661Z,14.18
2019-04-16T08:10:38.652Z,14.50
2019-04-16T08:11:43.572Z,13.05
2019-04-16T08:14:02.817Z,13.50
2019-04-16T08:15:14.173Z,13.90
2019-04-16T08:16:15.533Z,16.85
2019-04-16T08:17:20.959Z,15.10
2019-04-16T08:18:26.232Z,14.98
2019-04-16T08:19:36.964Z,12.90
2019-04-16T08:20:38.310Z,13.28
2019-04-16T08:21:44.537Z,15.60
2019-04-16T08:22:50.693Z,13.65
2019-04-16T08:24:10.453Z,13.53
2019-04-16T08:25:16.842Z,13.22
2019-04-16T08:26:21.895Z,13.25
2019-04-16T08:27:26.836Z,12.88
2019-04-16T08:28:32.211Z,13.25
2019-04-16T08:29:37.302Z,12.40
2019-04-16T08:30:42.277Z,14.80
2019-04-16T08:31:48.257Z,12.93
2019-04-16T08:32:53.226Z,13.55
2019-04-16T08:34:02.004Z,12.75
2019-04-16T08:35:07.675Z,13.00
2019-04-16T08:36:12.956Z,13.68
2019-04-16T08:37:17.958Z,13.95
2019-04-16T08:38:25.970Z,13.65
2019-04-16T08:39:30.419Z,14.03
2019-04-16T08:40:35.511Z,14.78
2019-04-16T08:41:40.528Z,14.23
2019-04-16T08:42:45.560Z,14.90
2019-04-16T08:43:50.935Z,14.25
2019-04-16T08:44:55.910Z,14.40
2019-04-16T08:46:01.540Z,15.70
2019-04-16T08:47:11.623Z,15.25
2019-04-16T08:48:18.667Z,14.95
2019-04-16T08:49:22.396Z,13.20
2019-04-16T08:50:27.694Z,12.95
2019-04-16T08:51:36.967Z,13.13
2019-04-16T08:52:41.701Z,14.70
2019-04-16T08:53:47.355Z,13.80
2019-04-16T08:54:54.892Z,14.47
2019-04-16T08:55:58.995Z,13.80
2019-04-16T08:57:04.089Z,14.60
2019-04-16T08:58:12.345Z,16.05
2019-04-16T08:59:16.318Z,13.05
2019-04-16T09:00:21.451Z,14.50
2019-04-16T09:01:28.638Z,14.85
2019-04-16T09:02:33.906Z,14.43
2019-04-16T09:03:38.928Z,14.03
2019-04-16T09:04:44.153Z,14.83
2019-04-16T09:05:49.292Z,14.40
2019-04-16T09:06:54.554Z,12.82
2019-04-16T09:08:12.966Z,14.10
2019-04-16T09:09:25.681Z,12.98
2019-04-16T09:10:31.119Z,16.10
2019-04-16T09:11:36.715Z,13.70
2019-04-16T09:12:45.900Z,15.93
2019-04-16T09:13:52.614Z,15.53
2019-04-16T09:14:57.610Z,14.60
2019-04-16T09:16:03.711Z,14.00
2019-04-16T09:17:20.779Z,13.62
2019-04-16T09:18:40.213Z,16.48
2019-04-16T09:19:51.559Z,13.53
2019-04-16T09:20:56.663Z,13.60
2019-04-16T09:22:01.738Z,14.35
2019-04-16T09:23:06.814Z,14.70
2019-04-16T09:25:45.930Z,13.03
2019-04-16T09:27:12.400Z,14.38
2019-04-16T09:28:26.071Z,14.80
2019-04-16T09:29:40.322Z,14.23
2019-04-16T09:31:03.129Z,14.35
2019-04-16T09:32:21.014Z,14.35
2019-04-16T09:33:35.943Z,13.62
2019-04-16T09:35:19.704Z,15.35
2019-04-16T09:36:41.439Z,14.40
2019-04-16T09:38:09.399Z,12.85
2019-04-16T09:39:32.092Z,14.03
2019-04-16T09:40:49.291Z,14.53
2019-04-16T09:41:54.636Z,14.87
2019-04-16T09:43:00.301Z,13.68
2019-04-16T09:44:05.700Z,10.95
2019-04-16T09:45:13.960Z,13.25
2019-04-16T09:46:25.518Z,14.00
2019-04-16T09:47:28.952Z,13.65
2019-04-16T09:48:34.734Z,14.63
2019-04-16T09:49:39.625Z,15.20
2019-04-16T09:50:47.729Z,14.35
2019-04-16T09:51:51.478Z,13.98
2019-04-16T09:52:56.532Z,14.68
2019-04-16T09:54:12.287Z,13.40
2019-04-16T09:55:15.197Z,13.62
2019-04-16T09:56:30.134Z,14.10
2019-04-16T09:57:35.196Z,14.07
2019-04-16T09:58:42.562Z,13.25
2019-04-16T09:59:54.394Z,13.40
2019-04-16T10:01:05.502Z,12.75
2019-04-16T10:02:22.223Z,14.58
2019-04-16T10:03:31.167Z,13.00
2019-04-16T10:04:36.262Z,13.78
2019-04-16T10:05:41.323Z,14.03
2019-04-16T10:06:46.556Z,12.90
2019-04-16T10:07:51.540Z,15.32
2019-04-16T10:08:56.971Z,14.05
2019-04-16T10:10:02.087Z,14.50
2019-04-16T10:11:07.287Z,14.83
2019-04-16T10:12:13.020Z,14.55
2019-04-16T10:13:30.022Z,13.65
2019-04-16T10:14:25.249Z,13.93
2019-04-16T10:15:30.385Z,13.22
2019-04-16T10:16:35.445Z,13.38
2019-04-16T10:17:40.559Z,13.35
2019-04-16T10:18:45.624Z,14.13
2019-04-16T10:19:50.980Z,14.13
2019-04-16T10:20:56.147Z,13.25
2019-04-16T10:22:01.095Z,13.78
2019-04-16T10:23:08.834Z,14.30
2019-04-16T10:24:51.347Z,14.00
2019-04-16T10:25:56.611Z,13.32
2019-04-16T10:27:04.235Z,13.68
2019-04-16T10:28:14.333Z,12.33
2019-04-16T10:29:19.702Z,14.55
2019-04-16T10:30:31.787Z,14.07
2019-04-16T10:31:36.748Z,14.35
2019-04-16T10:32:41.826Z,13.43
2019-04-16T10:33:46.914Z,15.28
2019-04-16T10:34:51.890Z,14.65
2019-04-16T10:35:57.553Z,13.50
2019-04-16T10:37:03.307Z,13.58
2019-04-16T10:38:24.574Z,14.60
2019-04-16T10:39:37.071Z,15.72
2019-04-16T10:40:44.671Z,14.03
2019-04-16T10:42:01.369Z,13.60
2019-04-16T10:43:19.920Z,13.83
2019-04-16T10:44:33.698Z,13.50
2019-04-16T10:45:56.936Z,13.55
2019-04-16T10:47:20.518Z,13.13
2019-04-16T10:48:43.188Z,13.20
2019-04-16T10:50:06.430Z,12.88
2019-04-16T10:51:43.051Z,13.72
2019-04-16T10:53:12.871Z,12.47
2019-04-16T10:54:41.124Z,13.70
2019-04-16T10:56:23.867Z,13.53
2019-04-16T10:57:57.211Z,12.95
2019-04-16T10:59:21.355Z,13.05
2019-04-16T11:00:38.123Z,12.50
2019-04-16T11:01:48.406Z,13.85
2019-04-16T11:03:06.212Z,12.30
2019-04-16T11:04:23.287Z,13.43
2019-04-16T11:05:42.069Z,11.90
2019-04-16T11:06:48.803Z,11.55
2019-04-16T11:07:53.982Z,12.75
2019-04-16T11:08:59.272Z,11.60
2019-04-16T11:10:04.851Z,11.70
2019-04-16T11:11:10.046Z,12.03
2019-04-16T11:12:15.067Z,11.35
2019-04-16T11:13:32.370Z,12.45
2019-04-16T11:14:37.394Z,10.90
2019-04-16T11:15:42.905Z,12.63
2019-04-16T11:16:50.065Z,12.45
2019-04-16T11:17:55.271Z,12.37
2019-04-16T11:19:00.375Z,11.35
2019-04-16T11:20:06.175Z,13.03
2019-04-16T11:21:11.896Z,13.10
2019-04-16T11:22:17.053Z,11.40
2019-04-16T11:23:22.146Z,12.65
2019-04-16T11:24:27.210Z,12.18
2019-04-16T11:25:32.217Z,11.90
2019-04-16T11:26:37.250Z,12.50
2019-04-16T11:27:42.424Z,12.00
2019-04-16T11:28:47.840Z,12.23
2019-04-16T11:29:53.216Z,11.28
2019-04-16T11:30:59.413Z,11.48
2019-04-16T11:32:04.569Z,11.48
2019-04-16T11:33:09.679Z,11.85
2019-04-16T11:34:15.265Z,13.05
2019-04-16T11:35:23.042Z,14.43
2019-04-16T11:36:30.645Z,14.30
2019-04-16T11:37:36.258Z,11.85
2019-04-16T11:38:41.644Z,12.33
2019-04-16T11:39:47.373Z,13.10
2019-04-16T11:40:52.358Z,14.10
2019-04-16T11:41:57.487Z,9.95
2019-04-16T11:43:03.166Z,11.73
2019-04-16T11:44:15.584Z,11.33
2019-04-16T11:45:15.755Z,10.63
2019-04-16T11:46:20.806Z,11.68
2019-04-16T11:47:28.018Z,11.90
2019-04-16T11:48:37.281Z,10.25
2019-04-16T11:49:39.635Z,11.70
2019-04-16T11:50:44.847Z,12.88
2019-04-16T11:51:49.972Z,11.57
2019-04-16T11:52:58.148Z,11.08
2019-04-16T11:54:02.212Z,10.30
2019-04-16T11:55:07.331Z,12.90
2019-04-16T11:56:12.334Z,11.90
2019-04-16T11:57:17.338Z,11.03
2019-04-16T11:58:36.483Z,10.45
2019-04-16T11:59:41.590Z,9.45
2019-04-16T12:00:53.980Z,9.28
2019-04-16T12:02:07.928Z,10.13
2019-04-16T12:03:28.850Z,10.88
2019-04-16T12:04:59.214Z,9.18
2019-04-16T12:06:28.247Z,9.93
2019-04-16T12:07:47.905Z,9.18
2019-04-16T12:09:10.810Z,10.80
2019-04-16T12:10:34.118Z,10.53
2019-04-16T12:11:47.747Z,10.68
2019-04-16T12:12:59.302Z,10.68
2019-04-16T12:14:34.377Z,10.53
2019-04-16T12:15:55.384Z,10.60
2019-04-16T12:17:07.151Z,10.95
2019-04-16T12:18:22.220Z,9.38
2019-04-16T12:19:55.521Z,9.83
2019-04-16T12:21:17.308Z,9.60
2019-04-16T12:22:26.153Z,10.82
2019-04-16T12:23:59.454Z,8.08
2019-04-16T12:25:30.011Z,10.85
2019-04-16T12:27:09.532Z,10.00
2019-04-16T12:28:31.090Z,9.83
2019-04-16T12:29:44.708Z,10.72
2019-04-16T12:31:16.855Z,10.48
2019-04-16T12:32:30.240Z,10.25
2019-04-16T12:33:54.326Z,10.30
2019-04-16T12:35:17.688Z,11.53
2019-04-16T12:36:44.705Z,12.90
2019-04-16T12:38:12.229Z,12.05
2019-04-16T12:39:35.959Z,11.88
2019-04-16T12:40:55.477Z,12.93
2019-04-16T12:42:07.512Z,13.20
2019-04-16T12:43:16.734Z,13.62
2019-04-16T12:44:45.023Z,12.88
2019-04-16T12:45:54.619Z,12.63
2019-04-16T12:47:30.969Z,12.68
2019-04-16T12:48:53.294Z,13.60
2019-04-16T12:50:03.683Z,12.82
2019-04-16T12:51:17.843Z,13.68
2019-04-16T12:52:38.753Z,13.45
2019-04-16T12:54:02.287Z,12.55
2019-04-16T12:55:31.731Z,13.95
2019-04-16T12:56:54.048Z,15.13
2019-04-16T12:58:03.927Z,13.60
2019-04-16T12:59:15.359Z,14.35
2019-04-16T13:00:40.019Z,14.73
2019-04-16T13:01:55.368Z,13.90
2019-04-16T13:03:28.368Z,15.03
2019-04-16T13:04:39.572Z,13.62
2019-04-16T13:05:53.970Z,16.10
2019-04-16T13:07:07.697Z,14.65
2019-04-16T13:08:31.723Z,14.90
2019-04-16T13:09:58.768Z,17.45
2019-04-16T13:11:35.213Z,13.93
2019-04-16T13:12:56.646Z,21.73
2019-04-16T13:14:26.881Z,16.37
2019-04-16T13:15:43.412Z,19.05
2019-04-16T13:17:01.707Z,17.82
2019-04-16T13:18:18.974Z,18.82
2019-04-16T13:19:35.687Z,21.33
2019-04-16T13:21:08.826Z,16.62
2019-04-16T13:22:15.109Z,16.27
2019-04-16T13:23:54.521Z,15.85
2019-04-16T13:25:18.839Z,16.45
2019-04-16T13:26:26.322Z,17.10
2019-04-16T13:27:33.966Z,16.40
2019-04-16T13:28:39.009Z,15.13
2019-04-16T13:29:43.970Z,15.30
2019-04-16T13:30:49.043Z,15.68
2019-04-16T13:31:54.181Z,16.50
2019-04-16T13:33:00.018Z,16.70
2019-04-16T13:34:05.552Z,17.40
2019-04-16T13:35:10.658Z,16.20
2019-04-16T13:36:15.866Z,19.65
2019-04-16T13:37:20.925Z,15.72
2019-04-16T13:38:26.727Z,16.82
2019-04-16T13:39:44.488Z,16.70
2019-04-16T13:40:50.171Z,17.50
2019-04-16T13:41:56.618Z,18.62
2019-04-16T13:43:05.880Z,17.45
2019-04-16T13:44:09.975Z,15.60
2019-04-16T13:45:29.581Z,15.40
2019-04-16T13:46:34.911Z,15.83
2019-04-16T13:47:47.065Z,13.78
2019-04-16T13:48:59.767Z,14.87
2019-04-16T13:50:24.672Z,14.80
2019-04-16T13:51:30.220Z,14.28
2019-04-16T13:52:35.585Z,14.50
2019-04-16T13:53:45.014Z,13.40
2019-04-16T13:55:15.080Z,12.93
2019-04-16T13:56:51.497Z,13.48
2019-04-16T13:58:19.862Z,14.30
2019-04-16T13:59:53.055Z,13.22
2019-04-16T14:01:08.675Z,12.88
2019-04-16T14:02:29.940Z,20.40
2019-04-16T14:03:34.878Z,15.70
2019-04-16T14:04:39.948Z,13.40
2019-04-16T14:05:45.376Z,12.95
2019-04-16T14:06:50.349Z,12.30
2019-04-16T14:07:55.363Z,12.53
2019-04-16T14:09:00.839Z,12.93
2019-04-16T14:10:07.041Z,12.58
2019-04-16T14:11:12.094Z,12.65
2019-04-16T14:12:17.167Z,14.40
2019-04-16T14:13:22.188Z,14.13
2019-04-16T14:14:27.146Z,13.60
2019-04-16T14:15:38.967Z,12.47
2019-04-16T14:16:43.778Z,12.55
2019-04-16T14:17:52.932Z,12.75
2019-04-16T14:18:54.803Z,12.85
2019-04-16T14:19:59.823Z,13.25
2019-04-16T14:21:05.561Z,13.35
2019-04-16T14:22:10.621Z,12.82
2019-04-16T14:23:15.716Z,14.15
2019-04-16T14:24:20.714Z,14.18
2019-04-16T14:25:25.911Z,11.57
2019-04-16T14:26:30.917Z,13.15
2019-04-16T14:27:36.083Z,13.28
2019-04-16T14:28:51.754Z,14.33
2019-04-16T14:29:48.186Z,16.05
2019-04-16T14:30:53.637Z,17.73
2019-04-16T14:31:58.791Z,13.30
2019-04-16T14:33:06.759Z,16.35
2019-04-16T14:34:34.420Z,12.58
2019-04-16T14:35:40.627Z,12.00
2019-04-16T14:36:45.651Z,12.93
2019-04-16T14:37:50.689Z,12.55
2019-04-16T14:38:58.634Z,11.00
2019-04-16T14:40:15.916Z,11.60
2019-04-16T14:41:21.303Z,11.65
2019-04-16T14:42:26.454Z,11.20
2019-04-16T14:43:36.129Z,11.43
2019-04-16T14:44:47.711Z,12.30
2019-04-16T14:45:59.334Z,12.18
2019-04-16T14:47:01.958Z,11.63
2019-04-16T14:48:08.880Z,11.33
2019-04-16T14:49:15.227Z,12.75
2019-04-16T14:50:23.603Z,11.00
2019-04-16T14:51:27.378Z,12.95
2019-04-16T14:52:32.404Z,13.60
2019-04-16T14:53:51.172Z,12.70
2019-04-16T14:55:00.285Z,13.72
2019-04-16T14:56:11.750Z,12.13
2019-04-16T14:57:17.100Z,12.82
2019-04-16T14:58:56.645Z,13.28
2019-04-16T15:00:19.232Z,12.78
2019-04-16T15:01:41.813Z,11.33
2019-04-16T15:03:07.517Z,12.10
2019-04-16T15:04:31.713Z,11.95
2019-04-16T15:06:08.265Z,12.45
2019-04-16T15:07:32.354Z,11.48
2019-04-16T15:09:08.807Z,12.13
2019-04-16T15:10:33.521Z,12.30
2019-04-16T15:12:12.740Z,12.58
2019-04-16T15:13:23.098Z,11.68
2019-04-16T15:14:32.882Z,12.55